createdAt,value
2023-03-26T00:04:28.503Z,128.70
2023-03-26T00:09:30.944Z,129.80
2023-03-26T00:14:33.681Z,135.73
2023-03-26T00:19:36.129Z,129.45
2023-03-26T00:24:39.546Z,145.88
2023-03-26T00:29:41.908Z,132.70
2023-03-26T00:34:46.493Z,126.18
2023-03-26T00:39:49.578Z,279.88
2023-03-26T00:44:57.975Z,310.33
2023-03-26T00:50:00.903Z,255.95
2023-03-26T00:55:03.502Z,214.63
2023-03-26T01:00:17.109Z,223.85
2023-03-26T01:06:18.075Z,183.30
2023-03-26T01:11:24.244Z,141.98
2023-03-26T01:16:52.837Z,147.82
2023-03-26T01:21:55.605Z,112.78
2023-03-26T01:27:08.144Z,132.70
2023-03-26T01:32:10.506Z,120.38
2023-03-26T01:37:27.458Z,132.48
2023-03-26T01:42:37.834Z,113.80
2023-03-26T01:47:42.720Z,92.15
2023-03-26T01:52:45.207Z,91.60
2023-03-26T01:58:05.952Z,80.18
2023-03-26T02:03:21.809Z,63.25
2023-03-26T02:08:36.127Z,45.70
2023-03-26T02:13:41.310Z,42.60
2023-03-26T02:18:45.914Z,49.63
2023-03-26T02:23:50.919Z,44.53
2023-03-26T02:28:53.726Z,56.55
2023-03-26T02:33:56.954Z,66.50
2023-03-26T02:39:02.479Z,59.92
2023-03-26T02:44:08.746Z,45.47
2023-03-26T02:49:31.400Z,40.20
2023-03-26T02:54:35.514Z,43.78
2023-03-26T03:00:09.284Z,45.17
2023-03-26T03:05:12.003Z,44.92
2023-03-26T03:10:15.822Z,37.25
2023-03-26T03:15:54.236Z,35.38
2023-03-26T03:20:56.999Z,33.80
2023-03-26T03:25:59.589Z,37.75
2023-03-26T03:31:02.226Z,31.35
2023-03-26T03:36:19.970Z,32.85
2023-03-26T03:41:26.679Z,41.38
2023-03-26T03:46:29.317Z,35.92
2023-03-26T03:51:31.847Z,37.78
2023-03-26T03:56:38.227Z,34.33
2023-03-26T04:02:03.627Z,27.05
2023-03-26T04:07:11.816Z,31.85
2023-03-26T04:12:34.136Z,28.85
2023-03-26T04:17:42.922Z,25.67
2023-03-26T04:22:47.572Z,28.42
2023-03-26T04:27:52.260Z,24.83
2023-03-26T04:33:16.649Z,29.73
2023-03-26T04:38:19.961Z,24.83
2023-03-26T04:43:27.050Z,26.30
2023-03-26T04:48:52.204Z,23.20
2023-03-26T04:54:00.782Z,24.40
2023-03-26T04:59:30.277Z,25.48
2023-03-26T05:04:39.845Z,19.65
2023-03-26T05:09:43.857Z,23.23
2023-03-26T05:14:51.037Z,18.55
2023-03-26T05:20:04.044Z,17.58
2023-03-26T05:25:07.861Z,18.90
2023-03-26T05:30:17.025Z,20.80
2023-03-26T05:35:23.081Z,17.30
2023-03-26T05:40:25.629Z,17.20
2023-03-26T05:45:32.037Z,20.88
2023-03-26T05:50:39.759Z,22.05
2023-03-26T05:55:47.485Z,17.48
2023-03-26T06:01:10.939Z,17.67
2023-03-26T06:06:36.054Z,19.38
2023-03-26T06:11:39.044Z,15.32
2023-03-26T06:16:42.708Z,15.15
2023-03-26T06:21:53.917Z,16.90
2023-03-26T06:27:00.154Z,12.50
2023-03-26T06:32:18.947Z,18.02
2023-03-26T06:37:33.274Z,15.60
2023-03-26T06:43:08.021Z,15.60
2023-03-26T06:48:18.755Z,15.13
2023-03-26T06:53:42.458Z,18.13
2023-03-26T07:04:27.404Z,15.73
2023-03-26T07:09:48.800Z,13.02
2023-03-26T07:15:11.756Z,11.18
2023-03-26T07:20:32.849Z,13.57
2023-03-26T07:25:35.711Z,19.17
2023-03-26T07:31:23.481Z,14.10
2023-03-26T07:36:57.312Z,16.85
2023-03-26T07:42:31.610Z,14.77
2023-03-26T07:47:54.023Z,13.73
2023-03-26T07:53:17.304Z,9.52
2023-03-26T07:58:54.129Z,13.57
2023-03-26T08:04:43.684Z,12.20
2023-03-26T08:10:24.043Z,10.32
2023-03-26T08:15:45.444Z,14.35
2023-03-26T08:20:54.983Z,13.40
2023-03-26T08:26:10.782Z,11.00
2023-03-26T08:31:15.656Z,9.93
2023-03-26T08:36:18.130Z,11.20
2023-03-26T08:41:53.460Z,11.40
2023-03-26T08:47:04.616Z,13.20
2023-03-26T08:52:28.837Z,11.90
2023-03-26T08:57:56.923Z,14.27
2023-03-26T09:08:54.266Z,10.32
2023-03-26T09:14:15.276Z,13.65
2023-03-26T09:19:32.626Z,10.75
2023-03-26T09:24:52.271Z,10.13
2023-03-26T09:30:01.074Z,10.40
2023-03-26T09:35:05.838Z,8.30
2023-03-26T09:40:29.671Z,11.32
2023-03-26T09:45:38.233Z,9.85
2023-03-26T09:51:09.989Z,13.38
2023-03-26T09:56:40.370Z,8.10
2023-03-26T10:01:55.105Z,8.98
2023-03-26T10:07:06.385Z,11.00
2023-03-26T10:12:36.928Z,9.60
2023-03-26T10:17:48.719Z,9.35
2023-03-26T10:23:03.364Z,8.65
2023-03-26T10:28:17.748Z,9.65
2023-03-26T10:33:48.060Z,9.45
2023-03-26T10:39:37.368Z,11.80
2023-03-26T10:44:53.913Z,11.85
2023-03-26T10:50:46.968Z,10.10
2023-03-26T10:56:00.024Z,10.10
2023-03-26T11:01:25.193Z,8.52
2023-03-26T11:06:32.363Z,9.35
2023-03-26T11:11:46.374Z,11.38
2023-03-26T11:16:58.683Z,11.57
2023-03-26T11:22:11.495Z,12.63
2023-03-26T11:27:26.516Z,12.98
2023-03-26T11:32:43.174Z,12.77
2023-03-26T11:37:53.889Z,10.88
2023-03-26T11:43:01.867Z,10.70
2023-03-26T11:48:19.472Z,8.35
2023-03-26T11:53:29.364Z,17.50
2023-03-26T11:58:41.606Z,8.98
2023-03-26T12:03:55.730Z,8.45
2023-03-26T12:08:58.119Z,9.25
2023-03-26T12:14:05.825Z,10.77
2023-03-26T12:19:20.382Z,8.02
2023-03-26T12:24:33.805Z,7.72
2023-03-26T12:29:36.385Z,9.52
2023-03-26T12:34:39.919Z,10.02
2023-03-26T12:45:07.115Z,14.55
2023-03-26T12:50:14.891Z,15.85
2023-03-26T12:55:56.874Z,19.33
2023-03-26T13:01:21.464Z,12.80
2023-03-26T13:06:59.174Z,8.48
2023-03-26T13:12:21.468Z,7.30
2023-03-26T13:17:51.548Z,11.50
2023-03-26T13:28:12.355Z,7.93
2023-03-26T13:33:43.731Z,8.05
2023-03-26T13:39:33.618Z,10.82
2023-03-26T13:45:14.959Z,9.20
2023-03-26T13:50:29.362Z,9.80
2023-03-26T13:55:40.435Z,11.65
2023-03-26T14:01:04.284Z,8.77
2023-03-26T14:06:24.773Z,8.13
2023-03-26T14:11:48.132Z,21.33
2023-03-26T14:17:03.881Z,9.95
2023-03-26T14:22:41.501Z,11.38
2023-03-26T14:27:54.592Z,10.05
2023-03-26T14:33:34.286Z,14.88
2023-03-26T14:39:00.103Z,43.65
2023-03-26T14:44:47.673Z,40.28
2023-03-26T14:50:31.751Z,29.73
2023-03-26T14:56:13.186Z,27.88
2023-03-26T15:01:26.925Z,29.85
2023-03-26T15:06:47.407Z,45.72
2023-03-26T15:12:12.904Z,51.33
2023-03-26T15:17:40.931Z,53.88
2023-03-26T15:23:08.069Z,32.22
2023-03-26T15:28:51.633Z,16.92
2023-03-26T15:34:20.229Z,16.20
2023-03-26T15:40:08.243Z,15.40
2023-03-26T15:45:42.405Z,17.35
2023-03-26T15:50:56.533Z,22.38
2023-03-26T15:56:11.844Z,25.40
2023-03-26T16:01:32.690Z,40.47
2023-03-26T16:06:50.493Z,46.13
2023-03-26T16:11:59.149Z,29.73
2023-03-26T16:17:05.658Z,13.65
2023-03-26T16:22:15.652Z,9.18
2023-03-26T16:27:32.430Z,9.25
2023-03-26T16:37:46.321Z,10.65
2023-03-26T16:43:22.863Z,11.30
2023-03-26T16:49:21.785Z,13.48
2023-03-26T16:54:27.301Z,16.70
2023-03-26T17:00:05.382Z,16.58
2023-03-26T17:05:24.976Z,11.60
2023-03-26T17:11:02.595Z,8.82
2023-03-26T17:16:27.754Z,11.45
2023-03-26T17:21:49.430Z,11.40
2023-03-26T17:27:28.427Z,10.57
2023-03-26T17:32:56.223Z,10.15
2023-03-26T17:37:58.989Z,12.05
2023-03-26T17:43:04.745Z,10.02
2023-03-26T17:48:16.984Z,9.80
2023-03-26T17:53:40.618Z,9.05
2023-03-26T17:58:55.003Z,7.97
2023-03-26T18:04:00.942Z,8.98
2023-03-26T18:09:11.011Z,8.65
2023-03-26T18:14:19.343Z,8.60
2023-03-26T18:19:23.329Z,8.00
2023-03-26T18:24:31.609Z,9.90
2023-03-26T18:29:36.075Z,10.32
2023-03-26T18:34:45.829Z,11.43
2023-03-26T18:40:07.778Z,9.15
2023-03-26T18:45:23.836Z,13.18
2023-03-26T18:50:36.109Z,10.77
2023-03-26T18:55:39.869Z,9.05
2023-03-26T19:00:43.096Z,9.73
2023-03-26T19:05:45.807Z,11.23
2023-03-26T19:10:51.029Z,13.57
2023-03-26T19:15:57.009Z,12.48
2023-03-26T19:21:03.663Z,7.50
2023-03-26T19:26:09.615Z,11.32
2023-03-26T19:31:26.251Z,8.70
2023-03-26T19:36:32.317Z,12.35
2023-03-26T19:41:38.910Z,8.90
2023-03-26T19:46:53.993Z,8.50
2023-03-26T19:52:33.358Z,11.70
2023-03-26T19:57:36.849Z,9.95
2023-03-26T20:02:40.039Z,9.75
2023-03-26T20:07:45.035Z,9.75
2023-03-26T20:12:47.500Z,12.82
2023-03-26T20:17:52.721Z,11.50
2023-03-26T20:22:55.597Z,23.10
2023-03-26T20:27:58.905Z,18.35
2023-03-26T20:33:12.707Z,18.60
2023-03-26T20:38:17.069Z,17.90
2023-03-26T20:43:22.016Z,15.43
2023-03-26T20:48:26.831Z,10.90
2023-03-26T20:53:30.724Z,15.85
2023-03-26T20:58:33.440Z,11.63
2023-03-26T21:03:35.868Z,10.88
2023-03-26T21:08:38.736Z,9.25
2023-03-26T21:14:00.201Z,11.15
2023-03-26T21:19:03.328Z,11.65
2023-03-26T21:24:47.071Z,9.32
2023-03-26T21:29:49.754Z,9.82
2023-03-26T21:40:00.312Z,10.25
2023-03-26T21:45:06.069Z,8.55
2023-03-26T21:50:10.403Z,9.07
2023-03-26T21:55:18.670Z,10.45
2023-03-26T22:00:33.515Z,11.90
2023-03-26T22:06:03.815Z,9.15
2023-03-26T22:11:07.989Z,11.45
2023-03-26T22:16:10.967Z,11.77
2023-03-26T22:21:14.377Z,12.95
2023-03-26T22:26:17.076Z,8.98
2023-03-26T22:31:19.699Z,8.65
2023-03-26T22:36:23.828Z,10.73
2023-03-26T22:41:26.800Z,12.55
2023-03-26T22:46:31.241Z,10.48
2023-03-26T22:56:36.613Z,11.18
2023-03-26T23:01:39.389Z,13.63
2023-03-26T23:06:41.889Z,13.27
2023-03-26T23:11:44.304Z,13.18
2023-03-26T23:16:46.701Z,15.73
2023-03-26T23:21:49.138Z,18.88
2023-03-26T23:26:51.566Z,14.90
2023-03-26T23:31:54.811Z,12.10
2023-03-26T23:36:58.261Z,13.75
2023-03-26T23:42:00.687Z,13.55
2023-03-26T23:47:03.112Z,13.23
2023-03-26T23:52:05.842Z,16.05
2023-03-26T23:57:09.191Z,14.63
